Marathon, FL (33050)

1:17 PM EDT on March 30, 2017 (GMT -0400)
Overseas Highway | | Change Station

Elev 29 ft 24.73 °N, 81.02 °W | Updated 4 minutes ago

Clear
Clear
82.9 °F
Feels Like 86 °F
N
6.2
Wind Variable Wind from South
Gusts 12.4 mph

Today
High -- | Low -- °F
--% Chance of Precip.
Yesterday
High -- | Low -- °F
Precip. -- in
Pressure 29.96 in
Visibility -9999.0 miles
Clouds Few 3100 ft
Heat Index 86 °F
Dew Point 69 °F
Humidity 63%
Rainfall 0.00 in
Snow Depth Not available.
7:17 AM 7:39 PM
Waxing Crescent, 9% visible
METAR KNQX 301653Z 14018G25KT FEW031 28/18 A2997 RMK AO2 SLP146 T02780183 $
Pressure 29.96 in
Visibility -9999.0 miles
Clouds Few 3100 ft
Heat Index 86 °F
Dew Point 69 °F
Humidity 63%
Rainfall 0.00 in
Snow Depth Not available.
7:17 AM 7:39 PM
Waxing Crescent, 9% visible
METAR KNQX 301653Z 14018G25KT FEW031 28/18 A2997 RMK AO2 SLP146 T02780183 $

Get Severe Weather Alerts

Thanks for signing up!

Be on the lookout for a verification email in your inbox.

You'll start receiving the daily forecast at 8 AM.

×

10-Day Weather Forecast

Almanac

Astronomy

Mar. 30, 2017 Rise Set
Actual Time
Civil Twilight
Nautical Twilight
Astronomical Twilight
Moon
Length of Visible Light
Length of Day
Tomorrow will be .
, % of the Moon is Illuminated

Today's Extremes

State Highs State Lows

Community

WunderPhotos

Upload Photos

1,962,540 photos uploaded!

WunderBlog® & News

Nearby

Air Quality

  Air Quality AQ Index Pollutant
Not available.

Snow Depth

Station Depth Elevation

Earthquake Activity

City Distance Mag. Time & Date
Minimum magnitude displayed is 2.5.

Earthquake Activity

City Distance Mag. Time & Date
Minimum magnitude displayed is 2.5.

Coastal Water Temperatures

Place Temperature

Stations

Nearby Weather Stations

Station Location Temp. Windchill Dew Point Humidity Wind Precip. Elev Updated Type
                   

Watches & Warnings

There are currently no watches in effect.